12WI weather

Memorial Hospital of Taylor County Heliport
Medford, Wisconsin, United States

Public forecast

Using degrees Fahrenheit for public forecast. Weather courtesy of forecast.io.

Closest aviation weather report (METAR) to Memorial Hospital of Taylor County Heliport

Closest report is Taylor County Airport, 3.1 nm (5.7 km) SE. Retrieved 2020/02/17 11:55 UTC (7 minutes ago):

KMDZ 171155Z AUTO 10007KT 10SM SCT018 OVC050 M09/M16 A3002 RMK AO2 T10901165 11080 21090

Closest aviation forecast (TAF) to Memorial Hospital of Taylor County Heliport

Closest forecast is Wausau Downtown Airport, 33.4 nm (61.9 km) ESE. Retrieved 2020/02/17 12:24 UTC (0 seconds ago):

TAF KAUW 171120Z 1712/1812 13007KT P6SM OVC035 FM171600 13010G17KT 4SM -SHSN OVC015 FM171900 14010G18KT 1 1/2SM -SN OVC008 FM180200 03004KT 2SM -SN OVC006 FM180600 33009G17KT P6SM -SHSN BKN013